Time;durP1;ratioP1;P1;durP2;ratioP2;P2;SDS_P1;SDS_P2;PMS_P1;PMS_P2;Temp;Humidity;BMP_temperature;BMP_pressure;BME280_temperature;BME280_humidity;BME280_pressure;Samples;Min_cycle;Max_cycle;Signal;HPM_P1;HPM_P2
2022/01/26 00:07:52;;;;;;;80.93;34.42;;;4.70;40.30;;;;;;5068879;28;20500;-74
2022/01/26 00:10:18;;;;;;;78.47;34.10;;;4.70;40.00;;;;;;5049483;28;20409;-74
2022/01/26 00:12:44;;;;;;;89.40;36.20;;;4.70;40.30;;;;;;5036414;28;20421;-74
2022/01/26 00:15:10;;;;;;;88.18;36.92;;;4.60;41.00;;;;;;5054263;28;20468;-74
2022/01/26 00:17:36;;;;;;;80.30;33.08;;;4.50;41.30;;;;;;5035107;28;20405;-73
2022/01/26 00:20:24;;;;;;;83.87;35.97;;;4.80;40.50;;;;;;5046618;28;20404;-73
2022/01/26 00:28:08;;;;;;;89.25;34.75;;;4.90;39.30;;;;;;5053995;28;20427;-74
2022/01/26 00:38:37;;;;;;;88.13;34.60;;;4.80;39.10;;;;;;5048831;28;20973;-73
2022/01/26 00:41:08;;;;;;;79.30;34.55;;;4.60;40.00;;;;;;5065607;28;20774;-73
2022/01/26 00:43:34;;;;;;;87.40;33.75;;;4.50;41.60;;;;;;5089056;28;20765;-73
2022/01/26 00:46:01;;;;;;;87.60;33.05;;;4.70;40.00;;;;;;5080709;28;20436;-72
2022/01/26 00:48:30;;;;;;;94.95;30.35;;;4.70;39.40;;;;;;5075441;28;20428;-74
2022/01/26 00:51:00;;;;;;;93.00;34.40;;;4.60;39.60;;;;;;5041941;28;20403;-74
2022/01/26 00:53:39;;;;;;;83.70;33.28;;;4.40;40.90;;;;;;5057263;28;20547;-74
2022/01/26 00:56:05;;;;;;;92.18;34.85;;;4.40;41.30;;;;;;5068067;28;20448;-74
2022/01/26 00:58:32;;;;;;;99.72;35.13;;;4.40;41.50;;;;;;5073162;28;20414;-74
2022/01/26 01:01:01;;;;;;;99.67;39.47;;;4.40;41.90;;;;;;5073324;28;20489;-74
2022/01/26 01:03:27;;;;;;;98.15;37.92;;;4.20;44.00;;;;;;5073163;28;20919;-74
2022/01/26 01:08:23;;;;;;;83.10;36.22;;;4.30;44.60;;;;;;5052330;28;20414;-74
2022/01/26 01:10:51;;;;;;;94.90;36.47;;;4.60;42.40;;;;;;5053113;28;20452;-73
2022/01/26 01:13:20;;;;;;;92.03;37.00;;;4.80;40.60;;;;;;5053165;28;20413;-73
2022/01/26 01:15:48;;;;;;;93.57;35.83;;;4.80;40.70;;;;;;5049515;28;20490;-72
2022/01/26 01:18:23;;;;;;;92.45;35.47;;;4.80;40.30;;;;;;5037078;28;20405;-74
2022/01/26 01:34:14;;;;;;;106.15;42.05;;;4.30;44.20;;;;;;5033017;28;20410;-72
2022/01/26 01:36:42;;;;;;;105.80;43.15;;;4.30;44.00;;;;;;5040025;28;20393;-73
2022/01/26 01:39:08;;;;;;;110.67;44.60;;;4.40;43.40;;;;;;5052501;28;20409;-73
2022/01/26 01:41:39;;;;;;;111.27;45.87;;;4.40;43.50;;;;;;5056954;28;20409;-74
2022/01/26 01:44:06;;;;;;;118.32;46.10;;;4.40;43.60;;;;;;5041273;28;20389;-74
2022/01/26 01:46:32;;;;;;;116.47;47.40;;;4.40;44.60;;;;;;5057007;28;20421;-74
2022/01/26 01:48:58;;;;;;;114.43;46.67;;;4.40;43.30;;;;;;5058031;28;20395;-73
2022/01/26 01:51:30;;;;;;;115.40;45.95;;;4.40;43.40;;;;;;5061642;28;20413;-72
2022/01/26 01:53:56;;;;;;;109.38;46.00;;;4.40;44.40;;;;;;5036871;28;20401;-73
2022/01/26 01:56:24;;;;;;;114.53;47.08;;;4.60;43.30;;;;;;5053791;28;20417;-75
2022/01/26 01:58:51;;;;;;;114.63;48.20;;;4.50;44.00;;;;;;5053058;28;20437;-72
2022/01/26 02:01:17;;;;;;;112.85;45.55;;;4.50;44.10;;;;;;5057006;28;20399;-74
2022/01/26 02:03:42;;;;;;;115.47;47.90;;;4.50;44.50;;;;;;5057557;28;20389;-74
2022/01/26 02:06:08;;;;;;;128.43;48.40;;;4.60;44.00;;;;;;5052170;28;20392;-73
2022/01/26 02:08:34;;;;;;;105.13;42.63;;;4.80;42.00;;;;;;5054315;28;20424;-73
2022/01/26 02:10:59;;;;;;;123.38;46.80;;;4.70;41.20;;;;;;5055185;28;20392;-74
2022/01/26 02:13:33;;;;;;;115.05;45.72;;;4.70;42.40;;;;;;5058152;28;20753;-74
2022/01/26 02:16:08;;;;;;;120.88;43.70;;;4.60;42.70;;;;;;5068869;28;20870;-73
2022/01/26 02:59:28;;;;;;;200.98;67.03;;;4.30;43.30;;;;;;5062598;28;20472;-73
2022/01/26 03:02:05;;;;;;;194.95;65.18;;;4.30;43.00;;;;;;5046030;28;20757;-73
2022/01/26 03:04:45;;;;;;;199.68;67.78;;;4.50;42.30;;;;;;5049377;28;20377;-73
2022/01/26 03:09:42;;;;;;;185.43;64.83;;;5.60;41.90;;;;;;5051714;28;20412;-73
2022/01/26 03:12:10;;;;;;;192.40;66.75;;;4.30;42.40;;;;;;5050209;28;20480;-73
2022/01/26 03:17:30;;;;;;;203.10;67.20;;;4.30;42.90;;;;;;5036432;28;20465;-72
2022/01/26 03:20:01;;;;;;;207.90;67.03;;;4.40;42.30;;;;;;5031635;28;20403;-73
2022/01/26 03:30:35;;;;;;;202.85;70.07;;;4.30;41.70;;;;;;5056341;28;20436;-72
2022/01/26 03:33:12;;;;;;;196.38;63.20;;;4.30;42.30;;;;;;5025321;28;20898;-72
2022/01/26 03:35:50;;;;;;;194.05;63.72;;;4.20;42.80;;;;;;5050830;28;20389;-73
2022/01/26 03:38:23;;;;;;;196.30;64.53;;;4.20;41.90;;;;;;5051068;28;20822;-73
2022/01/26 03:41:00;;;;;;;206.57;67.50;;;4.10;43.00;;;;;;5053235;28;20884;-73
2022/01/26 03:43:26;;;;;;;210.90;69.50;;;4.20;43.00;;;;;;5050334;28;20472;-72
2022/01/26 03:45:51;;;;;;;194.88;62.35;;;4.20;43.00;;;;;;5017566;28;20819;-73
2022/01/26 03:48:17;;;;;;;199.57;65.13;;;4.10;43.70;;;;;;5054043;28;20396;-73
2022/01/26 03:50:43;;;;;;;200.48;65.93;;;4.20;43.10;;;;;;5053318;28;20404;-73
2022/01/26 03:53:08;;;;;;;201.50;63.60;;;4.20;42.90;;;;;;5066392;28;20815;-73
2022/01/26 03:55:34;;;;;;;189.60;62.17;;;4.20;42.90;;;;;;5073766;28;20423;-73
2022/01/26 03:57:59;;;;;;;181.43;62.23;;;4.30;42.60;;;;;;5073910;28;20722;-73
2022/01/26 04:00:25;;;;;;;187.67;60.30;;;4.40;42.10;;;;;;5070091;28;20383;-73
2022/01/26 04:02:50;;;;;;;190.13;62.40;;;4.30;42.20;;;;;;5037960;28;20387;-74
2022/01/26 04:05:16;;;;;;;178.52;58.28;;;4.30;42.10;;;;;;5047761;28;20393;-73
2022/01/26 04:07:43;;;;;;;176.13;58.67;;;4.30;41.80;;;;;;5059326;28;20388;-74
2022/01/26 04:10:21;;;;;;;172.88;56.50;;;4.20;41.60;;;;;;5074462;28;20378;-74
2022/01/26 04:12:46;;;;;;;183.02;60.20;;;4.20;42.20;;;;;;5029706;28;20435;-74
2022/01/26 04:15:24;;;;;;;177.47;58.33;;;4.20;42.40;;;;;;5055687;28;20833;-74
2022/01/26 04:17:50;;;;;;;182.68;58.08;;;4.40;41.30;;;;;;5055797;28;20788;-74
2022/01/26 04:20:15;;;;;;;182.70;59.05;;;4.30;41.80;;;;;;5061326;28;20390;-75
2022/01/26 04:22:51;;;;;;;181.35;58.60;;;4.20;42.20;;;;;;5037878;28;20877;-73
2022/01/26 04:25:21;;;;;;;170.07;57.72;;;4.20;43.30;;;;;;5035494;28;20413;-73
2022/01/26 04:27:50;;;;;;;163.52;57.20;;;4.30;42.80;;;;;;5053804;28;20798;-73
2022/01/26 04:30:16;;;;;;;169.50;59.20;;;4.30;42.10;;;;;;5053451;28;20382;-72
2022/01/26 04:32:41;;;;;;;156.57;56.28;;;4.30;43.10;;;;;;5051659;28;20932;-74
2022/01/26 04:35:09;;;;;;;161.25;55.85;;;4.30;42.90;;;;;;5051943;28;20377;-71
2022/01/26 04:40:05;;;;;;;159.38;55.85;;;4.20;42.50;;;;;;5049032;28;20409;-72
2022/01/26 04:42:51;;;;;;;155.13;54.08;;;4.30;43.50;;;;;;5053312;28;20412;-73
2022/01/26 04:45:17;;;;;;;155.93;53.03;;;4.30;41.80;;;;;;5053196;28;20882;-73
2022/01/26 04:47:42;;;;;;;159.30;54.83;;;4.30;42.20;;;;;;5053234;28;20393;-73
2022/01/26 04:50:10;;;;;;;156.33;53.43;;;4.20;42.90;;;;;;5047184;28;20840;-74
2022/01/26 04:52:36;;;;;;;165.07;54.10;;;4.20;42.70;;;;;;5047468;28;20458;-72
2022/01/26 04:55:05;;;;;;;170.75;57.67;;;4.20;43.20;;;;;;5059417;28;20397;-74
2022/01/26 04:57:31;;;;;;;164.88;54.13;;;4.20;43.20;;;;;;5051673;28;20393;-74
2022/01/26 04:59:56;;;;;;;163.00;52.93;;;4.40;43.10;;;;;;5052045;28;20516;-74
2022/01/26 05:02:22;;;;;;;179.00;58.20;;;4.40;41.90;;;;;;5054428;28;20408;-74
2022/01/26 05:04:47;;;;;;;174.10;55.57;;;4.30;42.80;;;;;;5071396;28;20391;-75
2022/01/26 05:07:13;;;;;;;172.27;58.13;;;4.20;44.10;;;;;;5071137;28;20379;-74
2022/01/26 05:09:40;;;;;;;166.85;55.80;;;4.20;44.80;;;;;;5061006;28;20416;-73
2022/01/26 05:12:06;;;;;;;174.35;56.70;;;4.20;44.50;;;;;;5051790;28;20427;-73
2022/01/26 05:14:31;;;;;;;170.60;57.30;;;4.20;44.40;;;;;;5053039;28;20443;-74
2022/01/26 05:16:57;;;;;;;172.38;57.25;;;4.10;45.30;;;;;;5039247;28;20807;-73
2022/01/26 05:19:22;;;;;;;165.47;49.73;;;4.30;44.30;;;;;;5039405;28;20738;-73
2022/01/26 05:21:48;;;;;;;166.47;50.60;;;4.40;41.40;;;;;;5049802;28;20392;-74
2022/01/26 05:24:14;;;;;;;168.67;54.70;;;4.30;41.60;;;;;;5056521;28;20389;-74
2022/01/26 05:26:40;;;;;;;172.38;57.10;;;4.20;42.50;;;;;;5052644;28;20440;-74
2022/01/26 05:29:06;;;;;;;162.23;54.45;;;4.10;44.40;;;;;;5051769;28;20452;-74
2022/01/26 05:31:32;;;;;;;170.48;55.38;;;4.00;45.30;;;;;;5059016;28;20467;-74
2022/01/26 05:33:58;;;;;;;173.80;56.80;;;4.00;45.00;;;;;;5052853;28;20393;-74
2022/01/26 05:36:24;;;;;;;163.30;55.70;;;4.00;45.00;;;;;;5052136;28;20385;-74
2022/01/26 05:38:49;;;;;;;169.02;55.30;;;4.10;44.90;;;;;;5051964;28;20409;-74
2022/01/26 05:41:15;;;;;;;165.95;57.05;;;4.10;45.30;;;;;;5055948;28;20404;-74
2022/01/26 05:43:41;;;;;;;181.70;58.72;;;4.10;45.30;;;;;;5032544;28;20476;-74
2022/01/26 05:46:16;;;;;;;174.80;56.30;;;4.10;45.10;;;;;;5052733;28;20382;-74
2022/01/26 05:48:45;;;;;;;183.43;56.63;;;4.20;45.40;;;;;;5057233;28;20647;-75
2022/01/26 05:51:15;;;;;;;178.73;57.47;;;4.20;44.00;;;;;;5039958;28;20401;-75
2022/01/26 05:53:41;;;;;;;168.18;54.38;;;4.20;44.30;;;;;;5051234;28;20393;-74
2022/01/26 05:56:08;;;;;;;158.13;46.50;;;4.30;44.30;;;;;;5075380;28;20398;-75
2022/01/26 05:58:34;;;;;;;170.73;50.85;;;4.30;42.30;;;;;;5066280;28;20968;-74
2022/01/26 06:01:00;;;;;;;181.20;57.33;;;4.10;43.70;;;;;;5054960;28;20402;-73
2022/01/26 06:03:27;;;;;;;202.65;57.97;;;4.00;45.10;;;;;;5036577;28;20395;-75
2022/01/26 06:05:54;;;;;;;176.85;50.53;;;3.90;46.70;;;;;;5063774;28;20391;-74
2022/01/26 06:08:21;;;;;;;180.95;56.85;;;4.00;44.80;;;;;;5071890;28;20393;-75
2022/01/26 06:10:47;;;;;;;188.65;57.08;;;3.90;45.70;;;;;;5063285;28;20401;-75
2022/01/26 06:13:13;;;;;;;178.07;57.20;;;3.90;46.50;;;;;;5059985;28;20420;-74
2022/01/26 06:15:38;;;;;;;190.57;59.35;;;3.90;46.50;;;;;;5054568;28;20394;-74
2022/01/26 06:18:04;;;;;;;190.10;58.03;;;3.90;44.90;;;;;;5063162;28;20395;-74
2022/01/26 06:20:30;;;;;;;184.37;56.50;;;3.90;44.20;;;;;;5064337;28;20478;-75
2022/01/26 06:22:55;;;;;;;196.23;58.08;;;3.90;43.40;;;;;;5038350;28;20382;-75
2022/01/26 06:25:21;;;;;;;199.80;60.78;;;3.90;43.20;;;;;;5075000;28;20395;-74
2022/01/26 06:27:51;;;;;;;201.85;60.72;;;3.90;43.70;;;;;;5044609;28;20470;-76
2022/01/26 06:30:17;;;;;;;185.43;56.10;;;3.80;43.80;;;;;;5049035;28;20430;-76
2022/01/26 06:32:42;;;;;;;185.45;56.00;;;4.10;43.20;;;;;;5052036;28;20417;-74
2022/01/26 06:35:09;;;;;;;200.87;60.20;;;4.10;42.50;;;;;;5055985;28;20463;-74
2022/01/26 06:37:35;;;;;;;190.82;59.85;;;4.00;42.60;;;;;;5057210;28;20397;-73
2022/01/26 06:40:01;;;;;;;189.27;58.38;;;3.90;43.20;;;;;;5061826;28;20736;-73
2022/01/26 06:42:32;;;;;;;203.07;62.53;;;3.90;43.90;;;;;;5051554;28;20469;-73
2022/01/26 06:45:13;;;;;;;195.63;57.95;;;3.80;44.30;;;;;;5051495;28;20405;-73
2022/01/26 06:50:23;;;;;;;194.05;57.22;;;4.10;42.80;;;;;;5040915;28;20424;-74
2022/01/26 06:52:49;;;;;;;177.20;50.95;;;4.00;42.80;;;;;;5058509;28;20415;-74
2022/01/26 06:55:17;;;;;;;190.05;57.53;;;4.00;42.80;;;;;;5045180;28;20437;-75
2022/01/26 06:57:43;;;;;;;200.97;61.57;;;4.00;43.90;;;;;;5035377;28;21122;-73
2022/01/26 07:00:10;;;;;;;200.18;59.47;;;3.90;43.90;;;;;;5055502;28;20425;-74
2022/01/26 07:02:39;;;;;;;207.70;60.72;;;3.90;44.00;;;;;;5057166;28;20508;-74
2022/01/26 07:05:06;;;;;;;193.15;57.40;;;3.90;44.80;;;;;;5052097;28;20386;-74
2022/01/26 07:07:32;;;;;;;175.70;51.47;;;3.90;43.70;;;;;;5049398;28;20401;-73
2022/01/26 07:09:58;;;;;;;205.68;61.28;;;4.00;43.00;;;;;;5048960;28;20397;-74
2022/01/26 07:12:23;;;;;;;196.88;59.25;;;3.90;44.60;;;;;;5034142;28;20443;-74
2022/01/26 07:23:02;;;;;;;210.85;60.83;;;4.00;43.90;;;;;;5058851;28;20405;-74
2022/01/26 07:25:27;;;;;;;206.88;61.00;;;4.00;43.80;;;;;;5073396;28;20469;-76
2022/01/26 07:27:55;;;;;;;202.10;60.37;;;4.00;44.60;;;;;;5060392;28;20444;-75
2022/01/26 07:30:21;;;;;;;185.80;59.45;;;3.90;45.60;;;;;;5055376;28;20728;-76
2022/01/26 07:32:46;;;;;;;208.07;63.35;;;3.80;47.40;;;;;;5059364;28;20415;-74
2022/01/26 07:35:12;;;;;;;204.67;62.77;;;3.80;47.80;;;;;;5056211;28;20387;-73
2022/01/26 07:37:38;;;;;;;199.10;61.37;;;3.90;47.50;;;;;;5060831;28;20476;-73
2022/01/26 07:40:06;;;;;;;206.57;64.38;;;3.90;47.00;;;;;;5055025;28;20405;-74
2022/01/26 07:42:33;;;;;;;208.73;64.23;;;4.00;46.20;;;;;;5054875;28;20762;-72
2022/01/26 07:44:59;;;;;;;206.23;63.40;;;4.00;47.80;;;;;;5055612;28;20395;-73
2022/01/26 07:47:24;;;;;;;205.93;64.37;;;4.00;47.80;;;;;;5048210;28;20455;-74
2022/01/26 07:49:54;;;;;;;203.75;65.18;;;4.10;46.20;;;;;;5031530;28;20923;-74
2022/01/26 07:52:20;;;;;;;208.53;62.67;;;4.10;46.10;;;;;;5053530;28;20486;-74
2022/01/26 07:54:48;;;;;;;208.88;64.80;;;4.20;44.60;;;;;;5047861;28;20831;-74
2022/01/26 07:57:13;;;;;;;201.18;63.35;;;4.30;43.60;;;;;;5035254;28;20910;-73
2022/01/26 07:59:39;;;;;;;204.98;65.35;;;4.30;44.90;;;;;;5051951;28;20418;-75
2022/01/26 08:02:04;;;;;;;206.00;63.88;;;4.30;44.10;;;;;;5038493;28;20408;-74
2022/01/26 08:04:30;;;;;;;206.97;67.07;;;4.30;44.60;;;;;;5036048;28;20852;-75
2022/01/26 08:06:55;;;;;;;214.40;65.70;;;4.30;45.50;;;;;;5064187;28;20392;-75
2022/01/26 08:09:21;;;;;;;210.43;64.47;;;4.40;45.50;;;;;;5019110;28;20428;-73
2022/01/26 08:11:47;;;;;;;218.73;66.60;;;4.30;47.00;;;;;;5017206;28;20390;-74
2022/01/26 08:14:12;;;;;;;220.27;68.30;;;4.50;46.40;;;;;;5046905;28;20404;-74
2022/01/26 08:16:39;;;;;;;216.00;66.63;;;4.40;47.00;;;;;;5027437;28;20417;-75
2022/01/26 08:19:04;;;;;;;218.77;70.78;;;4.30;46.70;;;;;;5063498;28;20773;-72
2022/01/26 08:21:30;;;;;;;212.68;68.80;;;4.40;47.00;;;;;;5060514;28;20385;-74
2022/01/26 08:24:02;;;;;;;212.47;67.00;;;4.40;47.20;;;;;;5041462;28;20988;-75
2022/01/26 08:26:37;;;;;;;224.07;70.32;;;4.40;47.50;;;;;;5054830;28;20431;-75
2022/01/26 08:29:06;;;;;;;212.93;68.75;;;4.40;47.00;;;;;;5044901;28;20742;-74
2022/01/26 08:31:32;;;;;;;217.77;69.55;;;4.50;47.50;;;;;;5050524;28;20393;-74
2022/01/26 08:33:57;;;;;;;195.17;65.43;;;4.60;46.70;;;;;;5039877;28;20410;-74
2022/01/26 08:36:23;;;;;;;203.30;67.93;;;4.60;46.80;;;;;;5039748;28;20409;-72
2022/01/26 08:38:48;;;;;;;219.10;69.27;;;4.60;45.50;;;;;;5051608;28;20412;-73
2022/01/26 08:41:14;;;;;;;216.60;71.70;;;4.60;45.60;;;;;;5044470;28;20391;-75
2022/01/26 08:43:40;;;;;;;215.68;70.13;;;4.60;45.50;;;;;;5052606;28;20467;-73
2022/01/26 08:46:05;;;;;;;216.45;69.32;;;4.70;45.40;;;;;;5047619;28;20409;-75
2022/01/26 08:48:31;;;;;;;214.30;67.75;;;4.70;44.50;;;;;;5060827;28;20836;-74
2022/01/26 08:50:57;;;;;;;206.00;65.73;;;4.70;44.60;;;;;;5053859;28;20754;-72
2022/01/26 08:53:23;;;;;;;196.80;65.70;;;4.80;44.20;;;;;;5055567;28;20398;-72
2022/01/26 08:55:51;;;;;;;205.48;67.50;;;4.70;45.60;;;;;;5048176;28;20395;-74
2022/01/26 08:58:17;;;;;;;196.05;64.40;;;4.70;46.60;;;;;;5036559;28;20435;-72
2022/01/26 09:00:43;;;;;;;202.20;64.95;;;4.70;47.40;;;;;;5048799;28;20468;-75
2022/01/26 09:03:08;;;;;;;209.45;66.20;;;4.60;47.90;;;;;;5062194;28;20492;-73
2022/01/26 09:05:34;;;;;;;204.05;67.90;;;4.60;47.70;;;;;;5017579;28;20418;-74
2022/01/26 09:08:00;;;;;;;204.20;65.18;;;4.60;48.00;;;;;;5045266;28;20476;-73
2022/01/26 09:10:28;;;;;;;204.05;66.25;;;4.60;48.10;;;;;;5029887;28;20405;-72
2022/01/26 09:12:54;;;;;;;203.48;65.18;;;4.60;48.10;;;;;;5044909;28;20393;-73
2022/01/26 09:15:26;;;;;;;213.50;69.28;;;4.60;47.70;;;;;;5046514;28;20473;-72
2022/01/26 09:17:53;;;;;;;210.50;67.38;;;4.60;48.20;;;;;;5050198;28;20431;-73
2022/01/26 09:20:18;;;;;;;203.82;66.55;;;4.60;47.70;;;;;;5057674;28;20820;-74
2022/01/26 09:22:44;;;;;;;209.00;64.53;;;4.60;48.90;;;;;;5058315;28;20397;-72
2022/01/26 09:25:10;;;;;;;198.90;66.13;;;4.60;48.60;;;;;;5042154;28;20392;-75
2022/01/26 09:27:36;;;;;;;212.97;69.07;;;4.60;48.60;;;;;;5031053;28;20405;-73
2022/01/26 09:30:03;;;;;;;196.40;64.63;;;4.60;49.80;;;;;;5046888;28;20927;-74
2022/01/26 09:32:28;;;;;;;192.43;61.67;;;4.70;48.70;;;;;;5055187;28;20473;-73
2022/01/26 09:34:54;;;;;;;188.15;57.90;;;4.80;48.90;;;;;;5040027;28;20487;-73
2022/01/26 09:37:20;;;;;;;174.43;56.60;;;4.80;47.70;;;;;;5049406;28;20429;-73
2022/01/26 09:39:47;;;;;;;191.57;61.83;;;4.70;48.50;;;;;;5043593;28;20949;-74
2022/01/26 09:42:13;;;;;;;193.60;64.03;;;4.60;50.40;;;;;;5053908;28;20405;-76
2022/01/26 09:44:39;;;;;;;188.18;58.28;;;4.50;52.00;;;;;;5052042;28;20432;-75
2022/01/26 09:47:07;;;;;;;189.83;61.20;;;4.60;50.80;;;;;;5033492;28;20427;-73
2022/01/26 09:49:34;;;;;;;201.30;64.85;;;4.60;50.90;;;;;;5051352;28;21106;-74
2022/01/26 09:52:05;;;;;;;203.30;62.65;;;4.50;52.40;;;;;;5044942;28;20395;-75
2022/01/26 09:54:31;;;;;;;190.73;61.95;;;4.50;53.00;;;;;;5034121;28;20391;-73
2022/01/26 09:57:04;;;;;;;199.88;61.83;;;4.50;53.10;;;;;;5031866;28;20448;-72
2022/01/26 09:59:31;;;;;;;192.77;61.03;;;4.60;53.40;;;;;;5044421;28;20408;-74
2022/01/26 10:01:58;;;;;;;189.15;61.67;;;4.60;52.50;;;;;;5058859;28;20389;-74
2022/01/26 10:04:31;;;;;;;207.90;64.15;;;4.70;51.50;;;;;;5052387;28;20425;-73
2022/01/26 10:17:39;;;;;;;219.20;64.90;;;4.80;52.40;;;;;;5052441;28;20436;-74
2022/01/26 10:20:06;;;;;;;196.02;60.05;;;4.80;52.60;;;;;;5052806;28;20441;-74
2022/01/26 10:22:35;;;;;;;207.47;60.77;;;4.80;51.20;;;;;;5050899;28;20407;-75
2022/01/26 10:25:05;;;;;;;208.40;64.03;;;4.80;51.60;;;;;;5034030;28;20830;-76
2022/01/26 10:27:39;;;;;;;205.13;63.20;;;4.70;53.50;;;;;;5034870;28;20458;-75
2022/01/26 10:30:06;;;;;;;207.25;61.85;;;4.80;52.70;;;;;;5062728;28;20396;-74
2022/01/26 10:32:33;;;;;;;198.48;61.78;;;4.80;52.80;;;;;;5051426;28;20395;-72
2022/01/26 10:35:02;;;;;;;215.57;64.40;;;4.80;53.30;;;;;;5053072;28;20393;-75
2022/01/26 10:37:29;;;;;;;195.80;61.55;;;4.80;52.90;;;;;;5051886;28;20401;-75
2022/01/26 10:40:12;;;;;;;194.50;63.00;;;4.90;53.10;;;;;;5030840;28;20416;-75
2022/01/26 10:42:38;;;;;;;208.63;62.30;;;5.00;51.30;;;;;;5059101;28;20394;-75
2022/01/26 10:47:36;;;;;;;217.97;62.43;;;5.00;51.40;;;;;;5051719;28;20831;-74
2022/01/26 10:50:43;;;;;;;204.30;61.28;;;5.00;51.80;;;;;;5051726;28;20393;-73
2022/01/26 10:53:19;;;;;;;211.40;63.37;;;4.90;52.40;;;;;;5051407;28;20397;-75
2022/01/26 10:55:45;;;;;;;223.60;63.37;;;5.00;51.90;;;;;;5032152;28;20477;-74
2022/01/26 10:58:13;;;;;;;207.82;62.97;;;5.00;52.40;;;;;;5030611;28;20415;-73
2022/01/26 11:00:41;;;;;;;198.57;59.60;;;5.00;52.40;;;;;;5030790;28;20387;-75
2022/01/26 11:03:07;;;;;;;195.70;60.17;;;5.10;50.20;;;;;;5071249;28;20399;-74
2022/01/26 11:05:32;;;;;;;191.82;57.03;;;5.10;50.00;;;;;;5055180;28;20405;-74
2022/01/26 11:08:00;;;;;;;200.10;58.45;;;5.00;49.80;;;;;;5050384;28;20377;-74
2022/01/26 11:10:38;;;;;;;197.95;60.40;;;4.90;50.90;;;;;;5036817;28;20437;-74
2022/01/26 11:13:05;;;;;;;191.07;58.20;;;4.90;51.80;;;;;;5029937;28;20399;-74
2022/01/26 11:15:32;;;;;;;189.45;56.80;;;4.80;52.00;;;;;;5036243;28;20868;-74
2022/01/26 11:18:09;;;;;;;186.70;57.38;;;4.90;52.10;;;;;;5051724;28;20398;-74
2022/01/26 11:20:55;;;;;;;197.43;58.85;;;4.90;52.60;;;;;;5057465;28;20404;-73
2022/01/26 11:23:34;;;;;;;201.57;59.45;;;4.90;52.70;;;;;;5037639;28;20406;-74
2022/01/26 11:25:59;;;;;;;195.57;59.65;;;5.00;53.90;;;;;;5045064;28;20446;-75
2022/01/26 11:28:27;;;;;;;191.50;57.83;;;5.00;51.30;;;;;;5054182;28;20399;-74
2022/01/26 11:31:02;;;;;;;185.80;56.93;;;5.00;51.00;;;;;;5053422;28;20419;-73
2022/01/26 11:33:30;;;;;;;195.25;56.85;;;5.00;51.20;;;;;;5034707;28;20821;-75
2022/01/26 11:35:57;;;;;;;173.48;56.08;;;4.90;52.70;;;;;;5053857;28;20394;-74
2022/01/26 11:47:30;;;;;;;187.52;56.17;;;5.00;52.40;;;;;;5066597;28;20463;-74
2022/01/26 11:50:05;;;;;;;169.25;52.20;;;5.00;54.20;;;;;;5047199;28;20791;-72
2022/01/26 11:52:35;;;;;;;164.27;49.83;;;4.90;53.40;;;;;;5053302;28;20485;-76
2022/01/26 11:55:07;;;;;;;181.98;54.95;;;5.00;52.80;;;;;;5048455;28;20399;-73
2022/01/26 11:57:52;;;;;;;173.02;52.65;;;5.00;54.10;;;;;;5042642;28;20397;-73
2022/01/26 12:00:41;;;;;;;173.30;53.25;;;4.90;55.40;;;;;;5043791;28;20415;-73
2022/01/26 12:03:32;;;;;;;187.50;52.67;;;5.00;54.20;;;;;;5045534;28;20386;-74
2022/01/26 12:06:01;;;;;;;168.73;51.80;;;5.00;54.60;;;;;;5048012;28;20996;-73
2022/01/26 12:08:38;;;;;;;166.20;52.25;;;5.10;53.90;;;;;;5044883;28;20417;-74
2022/01/26 12:11:07;;;;;;;157.52;50.53;;;5.00;54.60;;;;;;5051515;28;20393;-75
2022/01/26 12:13:35;;;;;;;165.43;51.20;;;5.00;54.10;;;;;;5037933;28;20402;-73
2022/01/26 12:16:14;;;;;;;153.07;50.83;;;5.00;54.30;;;;;;5038896;28;20490;-74
2022/01/26 12:35:15;;;;;;;147.95;47.00;;;5.00;56.90;;;;;;5050592;28;20403;-74
2022/01/26 12:37:51;;;;;;;150.85;47.67;;;5.00;56.80;;;;;;5051120;28;20471;-73
2022/01/26 12:43:30;;;;;;;138.50;45.07;;;5.00;55.90;;;;;;5033582;28;20395;-73
2022/01/26 12:45:56;;;;;;;138.70;45.50;;;5.00;56.00;;;;;;5049077;28;20400;-73
2022/01/26 12:48:22;;;;;;;140.60;43.85;;;5.10;56.40;;;;;;5041605;28;21021;-73
2022/01/26 12:50:48;;;;;;;128.93;44.08;;;5.20;52.60;;;;;;5058435;28;20421;-74
2022/01/26 12:53:14;;;;;;;149.18;45.90;;;5.10;52.40;;;;;;5037598;28;20468;-75
2022/01/26 12:55:40;;;;;;;127.40;42.38;;;5.10;54.70;;;;;;5028386;28;20406;-75
2022/01/26 12:58:06;;;;;;;123.85;42.38;;;5.20;53.00;;;;;;5051079;28;20409;-75
2022/01/26 13:00:43;;;;;;;136.88;44.75;;;5.20;52.20;;;;;;5047699;28;20391;-75
2022/01/26 13:03:11;;;;;;;132.85;43.28;;;5.30;51.60;;;;;;5050859;28;20874;-75
2022/01/26 13:05:36;;;;;;;132.98;42.70;;;5.30;52.00;;;;;;5040815;28;20884;-74
2022/01/26 13:08:12;;;;;;;125.90;44.63;;;5.40;51.50;;;;;;5049807;28;20396;-74
2022/01/26 13:10:39;;;;;;;123.32;43.08;;;5.50;50.60;;;;;;5037757;28;20429;-73
2022/01/26 13:13:19;;;;;;;126.20;42.58;;;5.40;50.60;;;;;;5044251;28;20385;-74
2022/01/26 13:15:54;;;;;;;125.85;42.75;;;5.40;50.70;;;;;;5043706;28;20986;-74
2022/01/26 13:19:01;;;;;;;141.57;44.25;;;5.50;50.60;;;;;;5032827;28;20453;-74
2022/01/26 13:24:23;;;;;;;128.75;44.45;;;5.30;52.20;;;;;;5043596;28;20430;-74
2022/01/26 13:29:51;;;;;;;127.20;42.33;;;5.30;53.20;;;;;;5049491;28;20408;-73
2022/01/26 13:32:46;;;;;;;130.57;42.95;;;5.30;53.50;;;;;;5047769;28;20893;-76
2022/01/26 13:35:16;;;;;;;121.90;41.08;;;5.30;53.80;;;;;;5051321;28;20510;-75
2022/01/26 13:38:37;;;;;;;132.45;43.25;;;5.30;53.50;;;;;;5027979;28;20943;-73
2022/01/26 13:51:44;;;;;;;118.07;39.75;;;5.20;55.30;;;;;;5050886;28;20455;-75
2022/01/26 14:01:48;;;;;;;112.53;38.35;;;5.00;56.90;;;;;;5048789;28;20886;-75
2022/01/26 14:04:16;;;;;;;107.53;39.83;;;5.20;55.00;;;;;;5032224;28;20395;-75
2022/01/26 14:06:42;;;;;;;115.10;39.83;;;5.10;56.30;;;;;;5032731;28;20405;-74
2022/01/26 14:09:08;;;;;;;119.63;40.92;;;5.00;57.40;;;;;;5049877;28;20402;-74
2022/01/26 14:11:33;;;;;;;115.15;40.13;;;5.10;58.00;;;;;;5040632;28;20742;-74
2022/01/26 14:14:00;;;;;;;112.43;39.67;;;5.00;56.50;;;;;;5055058;28;20409;-74
2022/01/26 14:16:29;;;;;;;124.90;40.73;;;5.00;58.00;;;;;;5048194;28;20759;-73
2022/01/26 14:22:04;;;;;;;132.32;43.65;;;4.90;59.70;;;;;;5043299;28;20417;-73
2022/01/26 14:24:50;;;;;;;125.47;42.45;;;4.80;61.40;;;;;;5045487;28;20815;-74
2022/01/26 14:27:16;;;;;;;122.78;41.80;;;4.90;62.10;;;;;;5034616;28;20421;-75
2022/01/26 14:32:47;;;;;;;130.40;42.13;;;4.90;64.70;;;;;;5051201;28;20400;-75
2022/01/26 14:35:46;;;;;;;122.78;42.38;;;4.80;65.30;;;;;;5053468;28;20391;-75
2022/01/26 14:50:56;;;;;;;115.45;40.30;;;4.90;61.70;;;;;;5047060;28;20432;-75
2022/01/26 14:53:04;;;;;;;114.22;40.70;;;5.00;59.30;;;;;;5046196;28;20403;-74
2022/01/26 15:30:15;;;;;;;119.57;41.65;;;4.90;59.80;;;;;;5044459;28;20443;-75
2022/01/26 15:49:08;;;;;;;112.80;41.25;;;4.80;58.50;;;;;;5053576;28;20377;-74
2022/01/26 16:05:16;;;;;;;111.03;38.95;;;4.90;57.00;;;;;;5037980;28;20404;-74
2022/01/26 16:07:44;;;;;;;115.93;41.00;;;4.90;57.60;;;;;;5051351;28;20393;-74
2022/01/26 16:21:03;;;;;;;114.37;43.00;;;4.90;57.00;;;;;;5051035;28;20480;-75
2022/01/26 16:26:27;;;;;;;98.03;37.50;;;4.90;57.00;;;;;;5050007;28;20759;-73
2022/01/26 17:47:47;;;;;;;119.57;41.00;;;4.60;61.20;;;;;;5035782;28;20803;-76
2022/01/26 18:17:17;;;;;;;106.75;36.63;;;4.60;60.30;;;;;;5049230;28;20413;-75
2022/01/26 18:49:18;;;;;;;108.60;39.95;;;4.60;60.60;;;;;;5055323;28;20384;-75
2022/01/26 18:51:52;;;;;;;102.80;39.40;;;4.60;61.10;;;;;;5052939;28;20411;-74
2022/01/26 18:54:19;;;;;;;93.68;38.58;;;4.70;59.40;;;;;;5044963;28;20447;-76
2022/01/26 18:56:46;;;;;;;96.07;38.28;;;4.70;59.40;;;;;;5037961;28;20735;-73
2022/01/26 18:59:14;;;;;;;98.65;37.10;;;4.60;59.40;;;;;;5047516;28;20397;-74
2022/01/26 19:01:40;;;;;;;105.13;37.85;;;4.60;60.00;;;;;;5049528;28;20851;-74
2022/01/26 19:04:06;;;;;;;106.88;38.17;;;4.50;60.60;;;;;;5032119;28;20405;-75
2022/01/26 19:06:32;;;;;;;100.73;38.17;;;4.50;62.00;;;;;;5051485;28;20906;-75
2022/01/26 19:08:58;;;;;;;105.45;39.20;;;4.60;60.50;;;;;;5058639;28;20397;-74
2022/01/26 19:11:24;;;;;;;96.70;35.93;;;4.60;60.50;;;;;;5039248;28;20411;-74
2022/01/26 19:13:51;;;;;;;99.00;36.90;;;4.60;61.40;;;;;;5041245;28;20400;-76
2022/01/26 19:16:42;;;;;;;95.32;36.35;;;4.60;60.50;;;;;;5037881;28;20409;-76
2022/01/26 19:24:19;;;;;;;93.38;35.45;;;4.70;59.60;;;;;;5045326;28;20412;-74